Time;durP1;ratioP1;P1;durP2;ratioP2;P2;SDS_P1;SDS_P2;PMS_P1;PMS_P2;Temp;Humidity;BMP_temperature;BMP_pressure;BME280_temperature;BME280_humidity;BME280_pressure;Samples;Min_cycle;Max_cycle;Signal;HPM_P1;HPM_P2
2023/05/18 00:02:04;;;;;;;6.63;1.70;;;;;;;19.80;37.85;102712.28;5018809;28;20095;-70
2023/05/18 00:04:32;;;;;;;4.25;1.40;;;;;;;19.78;37.41;102709.72;5007493;28;20077;-70
2023/05/18 00:07:02;;;;;;;5.45;1.60;;;;;;;19.79;37.71;102705.28;5017300;28;20430;-70
2023/05/18 00:09:31;;;;;;;5.60;1.75;;;;;;;19.77;37.72;102701.88;5010159;28;20433;-69
2023/05/18 00:11:58;;;;;;;5.70;1.88;;;;;;;19.78;37.45;102706.25;5012381;28;20044;-70
2023/05/18 00:14:23;;;;;;;6.28;1.60;;;;;;;19.70;37.29;102693.44;5014594;28;20062;-70
2023/05/18 00:16:48;;;;;;;5.18;1.58;;;;;;;19.77;37.65;102709.81;5006463;28;20874;-70
2023/05/18 00:19:14;;;;;;;5.95;1.50;;;;;;;19.73;37.46;102701.19;5012907;28;20149;-70
2023/05/18 00:21:45;;;;;;;5.10;1.38;;;;;;;19.74;37.52;102703.75;5012694;28;20076;-70
2023/05/18 00:24:11;;;;;;;5.72;1.45;;;;;;;19.73;37.47;102709.97;5010858;28;20073;-69
2023/05/18 00:26:41;;;;;;;5.20;1.70;;;;;;;19.70;37.62;102698.72;5013589;28;20041;-70
2023/05/18 00:29:07;;;;;;;5.00;1.67;;;;;;;19.73;37.14;102709.97;5015532;28;20048;-69
2023/05/18 00:31:37;;;;;;;4.30;1.40;;;;;;;19.72;37.27;102708.25;5010145;28;20041;-69
2023/05/18 00:34:05;;;;;;;5.20;1.70;;;;;;;19.69;37.35;102711.09;5015101;28;20033;-69
2023/05/18 00:36:32;;;;;;;4.18;1.75;;;;;;;19.70;37.24;102715.44;5015337;28;20033;-69
2023/05/18 00:38:57;;;;;;;5.72;1.65;;;;;;;19.68;37.46;102706.75;5009256;28;20026;-70
2023/05/18 00:41:25;;;;;;;4.55;1.70;;;;;;;19.68;37.45;102714.69;5007507;28;20034;-69
2023/05/18 00:43:50;;;;;;;5.05;1.58;;;;;;;19.69;37.30;102712.88;5014422;28;20118;-69
2023/05/18 00:46:15;;;;;;;5.75;1.60;;;;;;;19.68;37.24;102711.19;5012379;28;20033;-69
2023/05/18 00:48:41;;;;;;;4.25;1.60;;;;;;;19.67;37.37;102710.31;5009787;28;20512;-69
2023/05/18 00:51:06;;;;;;;4.28;1.58;;;;;;;19.67;37.09;102712.13;5013388;28;20405;-70
2023/05/18 00:53:32;;;;;;;4.47;1.60;;;;;;;19.66;37.10;102713.06;5014074;28;20079;-70
2023/05/18 00:55:57;;;;;;;4.03;1.30;;;;;;;19.66;37.45;102710.41;5010030;28;20042;-70
2023/05/18 00:58:24;;;;;;;7.50;1.95;;;;;;;19.64;37.16;102712.31;5011274;28;20032;-70
2023/05/18 01:00:50;;;;;;;5.97;1.65;;;;;;;19.64;37.03;102713.16;5013089;28;20061;-70
2023/05/18 01:03:18;;;;;;;5.38;1.38;;;;;;;19.64;37.19;102710.50;5009824;28;20056;-72
2023/05/18 01:05:44;;;;;;;4.78;1.52;;;;;;;19.62;37.28;102707.09;5015202;28;20045;-70
2023/05/18 01:08:09;;;;;;;5.35;1.40;;;;;;;19.64;37.27;102715.78;5011416;28;20034;-70
2023/05/18 01:10:38;;;;;;;6.55;1.65;;;;;;;19.62;37.24;102714.19;5006306;28;20466;-70
2023/05/18 01:13:14;;;;;;;3.78;1.40;;;;;;;19.57;37.23;102710.00;5015771;28;20036;-70
2023/05/18 01:15:40;;;;;;;5.65;1.60;;;;;;;19.60;37.23;102714.28;5020445;28;20057;-70
2023/05/18 01:18:22;;;;;;;4.18;1.40;;;;;;;19.61;36.86;102717.78;5014035;28;20036;-69
2023/05/18 01:21:09;;;;;;;4.03;1.35;;;;;;;19.56;36.87;102715.38;5016737;28;20052;-68
2023/05/18 01:23:51;;;;;;;6.15;1.73;;;;;;;19.61;37.05;102728.34;5013822;28;20037;-69
2023/05/18 01:26:28;;;;;;;5.50;1.67;;;;;;;19.57;36.92;102714.47;5017250;28;20037;-70
2023/05/18 01:28:55;;;;;;;6.72;1.70;;;;;;;19.58;37.00;102714.38;5004291;28;20041;-69
2023/05/18 01:31:21;;;;;;;4.40;1.40;;;;;;;19.56;37.20;102718.88;5008957;28;20040;-69
2023/05/18 01:33:47;;;;;;;7.25;1.60;;;;;;;19.55;37.04;102718.97;5011170;28;20580;-68
2023/05/18 01:36:12;;;;;;;5.10;1.48;;;;;;;19.57;37.07;102725.03;5015687;28;20029;-70
2023/05/18 01:38:39;;;;;;;4.55;1.70;;;;;;;19.56;37.09;102723.31;5018825;28;20038;-70
2023/05/18 01:41:13;;;;;;;5.68;1.65;;;;;;;19.53;37.02;102720.84;5021466;28;20049;-68
2023/05/18 01:44:06;;;;;;;3.83;1.48;;;;;;;19.53;37.10;102719.06;5006741;28;20029;-70
2023/05/18 01:46:44;;;;;;;5.43;1.65;;;;;;;19.53;37.06;102721.69;5011249;28;20053;-70
2023/05/18 01:49:24;;;;;;;3.92;1.40;;;;;;;19.52;36.78;102714.72;5012122;28;20401;-70
2023/05/18 01:51:53;;;;;;;4.20;1.60;;;;;;;19.52;36.82;102716.53;5005123;28;20117;-70
2023/05/18 01:54:21;;;;;;;4.50;1.58;;;;;;;19.52;36.84;102722.66;5001908;28;20072;-69
2023/05/18 01:56:49;;;;;;;4.32;1.63;;;;;;;19.51;37.07;102720.09;5001344;28;20037;-70
2023/05/18 01:59:15;;;;;;;4.40;1.45;;;;;;;19.52;36.88;102727.09;5007739;28;20137;-69
2023/05/18 02:01:41;;;;;;;4.28;1.45;;;;;;;19.50;36.94;102718.38;5001459;28;20177;-69
2023/05/18 02:04:09;;;;;;;4.85;1.63;;;;;;;19.49;36.94;102709.63;5001392;28;20550;-70
2023/05/18 02:06:35;;;;;;;4.57;1.40;;;;;;;19.48;36.91;102715.81;5001349;28;20042;-69
2023/05/18 02:09:02;;;;;;;4.88;1.17;;;;;;;19.48;36.75;102715.00;5009687;28;20044;-70
2023/05/18 02:11:28;;;;;;;5.10;1.65;;;;;;;19.46;36.83;102703.66;5003427;28;20034;-69
2023/05/18 02:13:53;;;;;;;3.17;1.20;;;;;;;19.40;36.91;102697.75;5020782;28;20569;-70
2023/05/18 02:16:18;;;;;;;4.35;1.30;;;;;;;19.45;36.71;102710.72;5020389;28;20029;-71
2023/05/18 02:18:44;;;;;;;6.27;1.73;;;;;;;19.47;36.74;102710.63;5020878;28;20163;-71
2023/05/18 02:21:09;;;;;;;5.32;1.70;;;;;;;19.46;36.78;102709.78;5020799;28;20336;-71
2023/05/18 02:23:35;;;;;;;3.45;1.45;;;;;;;19.45;36.87;102710.72;5007803;28;20034;-71
2023/05/18 02:26:00;;;;;;;4.88;1.52;;;;;;;19.44;36.65;102708.16;5009717;28;20107;-70
2023/05/18 02:28:26;;;;;;;5.72;1.70;;;;;;;19.46;36.86;102711.59;5022965;28;20033;-71
2023/05/18 02:30:51;;;;;;;4.82;1.27;;;;;;;19.43;36.73;102704.69;5017881;28;20596;-71
2023/05/18 02:33:18;;;;;;;5.60;1.63;;;;;;;19.40;36.85;102695.13;5024265;28;20030;-69
2023/05/18 02:35:43;;;;;;;5.72;1.85;;;;;;;19.42;36.82;102696.81;5017689;28;20953;-70
2023/05/18 02:38:12;;;;;;;4.38;1.45;;;;;;;19.42;36.54;102705.59;5008623;28;20521;-69
2023/05/18 02:40:37;;;;;;;6.72;1.77;;;;;;;19.41;36.67;102701.28;5011925;28;20037;-69
2023/05/18 02:43:02;;;;;;;3.85;1.35;;;;;;;19.40;36.88;102696.91;5016170;28;20029;-69
2023/05/18 02:45:27;;;;;;;6.33;1.60;;;;;;;19.38;36.80;102690.88;5006978;28;20584;-69
2023/05/18 02:47:53;;;;;;;5.63;1.60;;;;;;;19.38;36.49;102689.06;5004534;28;20263;-70
2023/05/18 02:50:18;;;;;;;5.35;1.60;;;;;;;19.37;36.59;102691.81;5004364;28;20279;-69
2023/05/18 02:52:44;;;;;;;5.07;1.63;;;;;;;19.34;36.78;102692.84;5010860;28;20386;-69
2023/05/18 02:55:10;;;;;;;4.22;1.52;;;;;;;19.37;36.70;102697.09;5005265;28;20034;-69
2023/05/18 02:57:35;;;;;;;4.32;1.60;;;;;;;19.35;36.60;102689.25;5019012;28;20962;-69
2023/05/18 03:00:00;;;;;;;4.43;1.60;;;;;;;19.37;36.72;102692.66;5010686;28;20033;-70
2023/05/18 03:02:26;;;;;;;4.75;1.45;;;;;;;19.35;36.58;102689.25;5009593;28;20091;-70
2023/05/18 03:04:56;;;;;;;4.03;1.48;;;;;;;19.35;36.50;102694.53;5002840;28;20033;-70
2023/05/18 03:07:22;;;;;;;5.85;2.00;;;;;;;19.34;36.47;102695.50;5004139;28;20030;-70
2023/05/18 03:09:47;;;;;;;3.15;1.40;;;;;;;19.35;36.76;102702.47;5007053;28;20187;-71
2023/05/18 03:12:12;;;;;;;5.88;1.52;;;;;;;19.34;36.65;102697.25;5021994;28;20029;-70
2023/05/18 03:14:37;;;;;;;4.40;1.80;;;;;;;19.33;36.64;102692.94;5023555;28;20049;-70
2023/05/18 03:17:04;;;;;;;4.97;1.52;;;;;;;19.34;36.46;102691.97;5022076;28;20033;-70
2023/05/18 03:19:31;;;;;;;4.25;1.70;;;;;;;19.32;36.60;102694.72;5017171;28;20053;-69
2023/05/18 03:21:56;;;;;;;4.05;1.58;;;;;;;19.32;36.54;102696.50;5018828;28;20034;-70
2023/05/18 03:24:25;;;;;;;5.13;1.50;;;;;;;19.32;36.62;102692.06;5002563;28;20041;-70
2023/05/18 03:26:52;;;;;;;4.50;1.60;;;;;;;19.33;36.55;102700.88;5003720;28;20034;-70
2023/05/18 03:29:18;;;;;;;4.30;1.70;;;;;;;19.31;36.71;102703.59;5004205;28;20034;-70
2023/05/18 03:31:43;;;;;;;5.30;1.60;;;;;;;19.31;36.78;102700.09;5003642;28;20084;-70
2023/05/18 03:34:08;;;;;;;4.82;1.88;;;;;;;19.30;36.43;102695.75;5022354;28;20049;-71
2023/05/18 03:36:34;;;;;;;4.18;1.40;;;;;;;19.30;36.48;102695.75;5023291;28;20099;-69
2023/05/18 03:38:59;;;;;;;5.00;1.60;;;;;;;19.29;36.65;102694.88;5004627;28;20478;-69
2023/05/18 03:41:25;;;;;;;7.00;2.17;;;;;;;19.30;36.48;102699.25;5022060;28;20482;-69
2023/05/18 03:43:50;;;;;;;4.95;1.52;;;;;;;19.28;36.48;102694.97;5023051;28;20086;-70
2023/05/18 03:46:15;;;;;;;4.13;1.58;;;;;;;19.27;36.60;102698.56;5023207;28;20037;-68
2023/05/18 03:48:41;;;;;;;5.15;1.50;;;;;;;19.27;36.62;102690.63;5012548;28;20061;-69
2023/05/18 03:51:06;;;;;;;4.07;1.40;;;;;;;19.26;36.68;102695.06;5003478;28;20460;-68
2023/05/18 03:53:32;;;;;;;3.70;1.40;;;;;;;19.27;36.56;102703.84;5003389;28;20303;-69
2023/05/18 03:55:57;;;;;;;4.18;1.50;;;;;;;19.26;36.58;102697.69;5016068;28;20048;-68
2023/05/18 03:58:23;;;;;;;3.63;1.50;;;;;;;19.26;36.36;102699.50;5011167;28;20038;-70
2023/05/18 04:00:49;;;;;;;3.80;1.55;;;;;;;19.26;36.61;102702.16;5003306;28;20890;-70
2023/05/18 04:03:14;;;;;;;3.65;1.40;;;;;;;19.24;36.34;102712.81;5004915;28;20036;-71
2023/05/18 04:05:42;;;;;;;4.25;1.35;;;;;;;19.24;36.34;102696.94;5017484;28;20466;-69
2023/05/18 04:08:09;;;;;;;3.28;1.45;;;;;;;19.23;36.50;102705.81;5011570;28;20440;-69
2023/05/18 04:10:34;;;;;;;3.72;1.38;;;;;;;19.21;36.47;102710.34;5021357;28;20040;-71
2023/05/18 04:13:00;;;;;;;5.78;1.75;;;;;;;19.22;36.49;102712.03;5022682;28;20415;-70
2023/05/18 04:15:25;;;;;;;5.28;1.67;;;;;;;19.22;36.53;102714.69;5020856;28;20088;-69
2023/05/18 04:17:52;;;;;;;5.45;1.63;;;;;;;19.20;36.59;102712.13;5004220;28;20430;-70
2023/05/18 04:20:18;;;;;;;5.22;1.70;;;;;;;19.20;36.17;102722.69;5003072;28;20080;-69
2023/05/18 04:22:46;;;;;;;4.60;1.70;;;;;;;19.18;36.58;102721.06;5021320;28;20073;-68
2023/05/18 04:25:13;;;;;;;4.45;1.60;;;;;;;19.19;36.55;102728.06;5016564;28;20030;-69
2023/05/18 04:27:46;;;;;;;4.10;1.13;;;;;;;19.17;36.45;102724.69;5020746;28;20025;-70
2023/05/18 04:30:12;;;;;;;7.25;1.95;;;;;;;19.18;36.38;102721.06;5013561;28;20041;-69
2023/05/18 04:32:41;;;;;;;5.57;1.60;;;;;;;19.18;36.37;102735.16;5008142;28;20030;-69
2023/05/18 04:35:07;;;;;;;4.28;1.52;;;;;;;19.18;36.44;102729.00;5014490;28;20052;-70
2023/05/18 04:37:33;;;;;;;6.35;1.75;;;;;;;19.19;36.46;102733.38;5014719;28;20423;-70
2023/05/18 04:40:01;;;;;;;5.10;1.63;;;;;;;19.17;36.21;102725.53;5015404;28;20051;-69
2023/05/18 04:42:27;;;;;;;6.78;1.60;;;;;;;19.17;36.35;102730.81;5021560;28;20041;-70
2023/05/18 04:44:53;;;;;;;4.70;1.73;;;;;;;19.15;36.48;102726.53;5021434;28;20029;-69
2023/05/18 04:47:20;;;;;;;5.45;1.60;;;;;;;19.16;36.40;102730.88;5021762;28;20044;-69
2023/05/18 04:49:47;;;;;;;5.15;1.63;;;;;;;19.15;36.45;102730.06;5015665;28;20029;-69
2023/05/18 04:52:13;;;;;;;5.40;1.67;;;;;;;19.14;36.32;102735.41;5004923;28;20478;-69
2023/05/18 04:54:39;;;;;;;5.20;1.60;;;;;;;19.15;36.47;102743.25;5017718;28;20026;-69
2023/05/18 04:57:05;;;;;;;4.35;1.60;;;;;;;19.14;36.32;102744.19;5007969;28;20489;-69
2023/05/18 04:59:30;;;;;;;5.50;1.58;;;;;;;19.13;36.34;102737.19;5010909;28;20034;-69
2023/05/18 05:01:55;;;;;;;5.63;1.60;;;;;;;19.14;36.41;102741.53;5011857;28;20441;-70
2023/05/18 05:04:21;;;;;;;5.13;1.58;;;;;;;19.14;36.36;102744.19;5015298;28;20521;-70
2023/05/18 05:06:47;;;;;;;6.43;1.67;;;;;;;19.14;36.87;102746.00;5013434;28;20033;-69
2023/05/18 05:09:13;;;;;;;5.00;1.80;;;;;;;19.13;36.55;102736.34;5004117;28;20037;-69
2023/05/18 05:11:39;;;;;;;6.18;1.67;;;;;;;19.13;36.46;102741.63;5016104;28;20036;-69
2023/05/18 05:14:05;;;;;;;6.38;2.03;;;;;;;19.14;36.64;102738.06;5018197;28;20516;-69
2023/05/18 05:16:30;;;;;;;4.97;1.80;;;;;;;19.14;36.60;102740.69;5012641;28;20034;-68
2023/05/18 05:18:55;;;;;;;6.03;1.85;;;;;;;19.13;36.77;102737.19;5014525;28;20041;-69
2023/05/18 05:21:20;;;;;;;4.28;1.27;;;;;;;19.14;36.67;102740.69;5018176;28;20119;-69
2023/05/18 05:23:46;;;;;;;3.65;1.40;;;;;;;19.14;36.50;102749.47;5010101;28;20034;-69
2023/05/18 05:26:11;;;;;;;5.93;1.55;;;;;;;19.08;36.62;102733.97;5014761;28;20033;-69
2023/05/18 05:28:36;;;;;;;5.82;1.98;;;;;;;19.14;36.67;102749.47;5003365;28;20056;-69
2023/05/18 05:31:02;;;;;;;4.43;1.63;;;;;;;19.13;36.40;102747.75;5012705;28;20057;-69
2023/05/18 05:33:27;;;;;;;4.97;1.85;;;;;;;19.13;36.83;102746.91;5007059;28;20271;-69
2023/05/18 05:35:53;;;;;;;3.67;1.48;;;;;;;19.08;37.16;102741.88;5009857;28;20355;-69
2023/05/18 05:38:18;;;;;;;4.90;1.50;;;;;;;19.06;37.42;102748.19;5008740;28;20374;-70
2023/05/18 05:40:43;;;;;;;4.15;1.40;;;;;;;19.06;37.69;102746.41;5012510;28;20034;-70
2023/05/18 05:43:08;;;;;;;5.30;1.47;;;;;;;19.05;37.41;102747.34;5009297;28;20201;-70
2023/05/18 05:45:34;;;;;;;3.25;1.35;;;;;;;19.04;37.43;102745.63;5020284;28;20329;-69
2023/05/18 05:47:59;;;;;;;3.40;1.20;;;;;;;19.02;37.60;102745.69;5014176;28;20044;-70
2023/05/18 05:50:26;;;;;;;5.15;1.77;;;;;;;19.03;37.71;102749.22;5012036;28;20130;-70
2023/05/18 05:52:54;;;;;;;5.22;1.50;;;;;;;19.02;37.77;102744.84;5027464;28;20100;-70
2023/05/18 05:55:20;;;;;;;3.38;1.27;;;;;;;19.03;37.94;102752.72;5020945;28;20038;-70
2023/05/18 05:57:45;;;;;;;3.03;1.20;;;;;;;19.00;38.40;102744.09;5016040;28;20038;-70
2023/05/18 06:00:11;;;;;;;4.05;1.30;;;;;;;19.02;38.44;102747.50;5015424;28;20041;-70
2023/05/18 06:02:38;;;;;;;4.85;1.30;;;;;;;19.06;38.49;102753.47;5009733;28;20481;-70
2023/05/18 06:05:04;;;;;;;4.72;1.20;;;;;;;19.07;38.30;102747.25;5018129;28;20378;-69
2023/05/18 06:07:30;;;;;;;4.28;1.33;;;;;;;19.09;38.26;102754.16;5017691;28;20025;-69
2023/05/18 06:09:55;;;;;;;3.45;1.10;;;;;;;19.09;38.12;102754.16;5011022;28;20029;-69
2023/05/18 06:12:20;;;;;;;4.60;1.27;;;;;;;19.11;38.40;102747.00;5018668;28;20099;-69
2023/05/18 06:14:46;;;;;;;2.97;1.10;;;;;;;19.12;38.24;102753.13;5012685;28;20050;-70
2023/05/18 06:17:11;;;;;;;4.18;1.38;;;;;;;19.12;38.23;102746.06;5012410;28;20358;-69
2023/05/18 06:19:36;;;;;;;5.00;1.42;;;;;;;19.14;38.23;102754.75;5007398;28;20466;-69
2023/05/18 06:22:02;;;;;;;4.18;1.20;;;;;;;19.16;38.45;102752.03;5020650;28;20043;-70
2023/05/18 06:24:27;;;;;;;4.28;1.40;;;;;;;19.15;38.39;102752.97;5013039;28;20548;-69
2023/05/18 06:26:52;;;;;;;4.45;1.23;;;;;;;19.16;38.39;102752.03;5010682;28;20041;-69
2023/05/18 06:29:18;;;;;;;4.32;1.23;;;;;;;19.15;38.24;102751.19;5012775;28;20056;-69
2023/05/18 06:31:43;;;;;;;3.80;1.35;;;;;;;19.17;38.39;102753.75;5007874;28;20042;-69
2023/05/18 06:34:08;;;;;;;4.03;1.27;;;;;;;19.17;38.10;102746.66;5009699;28;20041;-69
2023/05/18 06:36:34;;;;;;;4.22;1.23;;;;;;;19.20;38.06;102753.53;5010138;28;20025;-70
2023/05/18 06:38:59;;;;;;;4.63;1.40;;;;;;;19.20;38.06;102756.19;5014339;28;20033;-70
2023/05/18 06:41:24;;;;;;;5.43;1.40;;;;;;;19.18;38.18;102758.94;5014907;28;20549;-70
2023/05/18 06:43:50;;;;;;;4.40;1.45;;;;;;;19.27;37.19;102756.72;5024624;28;20087;-69
2023/05/18 06:46:20;;;;;;;5.10;1.50;;;;;;;19.35;37.00;102762.44;5012239;28;20091;-70
2023/05/18 06:48:46;;;;;;;5.10;1.50;;;;;;;19.37;37.06;102761.38;5014705;28;20041;-70
2023/05/18 06:51:11;;;;;;;5.80;2.65;;;;;;;19.40;36.90;102763.84;5015731;28;20030;-72
2023/05/18 06:53:36;;;;;;;4.75;1.33;;;;;;;19.40;37.22;102763.00;5015436;28;20576;-72
2023/05/18 06:56:03;;;;;;;3.70;1.27;;;;;;;19.39;37.42;102754.25;5024122;28;20124;-72
2023/05/18 06:58:28;;;;;;;3.22;1.50;;;;;;;19.37;37.85;102763.19;5018839;28;20966;-70
2023/05/18 07:00:54;;;;;;;4.53;1.15;;;;;;;19.39;37.87;102766.59;5024248;28;20561;-72
2023/05/18 07:03:19;;;;;;;6.88;1.80;;;;;;;19.34;38.03;102776.56;5024337;28;20449;-71
2023/05/18 07:05:44;;;;;;;4.72;1.70;;;;;;;19.28;38.53;102772.50;5022382;28;20076;-74
2023/05/18 07:08:10;;;;;;;7.18;1.77;;;;;;;19.31;38.13;102767.03;5004437;28;20486;-72
2023/05/18 07:10:37;;;;;;;3.80;1.42;;;;;;;19.34;38.15;102766.00;5004809;28;20041;-72
2023/05/18 07:13:03;;;;;;;5.03;1.50;;;;;;;19.30;38.19;102769.78;5021763;28;20041;-72
2023/05/18 07:15:28;;;;;;;8.25;1.60;;;;;;;19.31;38.57;102777.63;5023954;28;20049;-73
2023/05/18 07:17:53;;;;;;;3.90;1.50;;;;;;;19.30;38.56;102769.78;5014735;28;20033;-69
2023/05/18 07:20:19;;;;;;;5.23;1.93;;;;;;;19.32;38.87;102778.47;5023712;28;20033;-69
2023/05/18 07:22:44;;;;;;;4.60;1.40;;;;;;;19.29;39.20;102773.34;5010842;28;20326;-70
2023/05/18 07:25:09;;;;;;;6.10;1.50;;;;;;;19.33;38.78;102783.66;5011722;28;20500;-71
2023/05/18 07:27:35;;;;;;;5.72;1.88;;;;;;;19.35;38.92;102779.13;5023212;28;20044;-71
2023/05/18 07:30:00;;;;;;;6.25;1.80;;;;;;;19.37;39.07;102786.97;5010522;28;20386;-72
2023/05/18 07:32:25;;;;;;;4.85;1.50;;;;;;;19.38;39.02;102783.41;5018380;28;20378;-72
2023/05/18 07:34:51;;;;;;;3.50;1.30;;;;;;;19.45;38.79;102784.75;5016903;28;20082;-71
2023/05/18 07:37:16;;;;;;;4.45;1.67;;;;;;;19.45;38.91;102790.03;5007325;28;20498;-72
2023/05/18 07:39:41;;;;;;;6.95;1.80;;;;;;;19.43;38.75;102785.81;5003589;28;20037;-72
2023/05/18 07:42:07;;;;;;;3.67;1.10;;;;;;;19.45;38.68;102790.03;5012946;28;20037;-72
2023/05/18 07:44:32;;;;;;;5.28;1.45;;;;;;;19.48;38.64;102786.38;5022749;28;20038;-72
2023/05/18 07:46:58;;;;;;;6.30;1.42;;;;;;;19.47;38.69;102790.84;5017273;28;20069;-70
2023/05/18 07:49:24;;;;;;;5.25;1.40;;;;;;;19.45;38.61;102795.34;5014058;28;20147;-71
2023/05/18 07:51:49;;;;;;;5.70;1.40;;;;;;;19.39;39.13;102791.25;5003317;28;20422;-71
2023/05/18 07:54:15;;;;;;;7.13;2.70;;;;;;;19.44;38.88;102801.56;5017198;28;20098;-70
2023/05/18 07:56:40;;;;;;;5.43;1.70;;;;;;;19.42;39.06;102798.16;5010956;28;20033;-71
2023/05/18 07:59:08;;;;;;;5.22;1.50;;;;;;;19.47;38.78;102803.19;5010537;28;20033;-71
2023/05/18 08:01:34;;;;;;;5.95;1.92;;;;;;;19.44;39.19;102801.56;5017874;28;20041;-70
2023/05/18 08:04:00;;;;;;;3.28;1.25;;;;;;;19.48;38.66;102808.38;5015556;28;20034;-70
2023/05/18 08:06:25;;;;;;;5.70;1.63;;;;;;;19.49;38.73;102804.81;5018142;28;20033;-70
2023/05/18 08:08:51;;;;;;;6.13;1.65;;;;;;;19.49;38.86;102803.97;5009203;28;20451;-71
2023/05/18 08:11:16;;;;;;;4.88;1.52;;;;;;;19.44;39.10;102796.28;5015352;28;20460;-70
2023/05/18 08:13:41;;;;;;;4.90;1.10;;;;;;;19.43;39.23;102810.44;5006265;28;20083;-72
2023/05/18 08:16:06;;;;;;;5.63;1.60;;;;;;;19.39;39.46;102803.59;5018552;28;20076;-69
2023/05/18 08:18:32;;;;;;;7.50;1.88;;;;;;;19.40;39.04;102803.53;5007869;28;20037;-69
2023/05/18 08:20:57;;;;;;;6.20;1.58;;;;;;;19.37;39.10;102793.13;5002500;28;20022;-70
2023/05/18 08:23:23;;;;;;;6.25;1.33;;;;;;;19.44;39.21;102801.56;5005320;28;20049;-70
2023/05/18 08:25:49;;;;;;;5.63;1.52;;;;;;;19.48;38.67;102802.25;5002130;28;20038;-71
2023/05/18 08:28:15;;;;;;;5.90;1.60;;;;;;;19.50;38.76;102798.59;5009694;28;20030;-70
2023/05/18 08:30:40;;;;;;;4.95;1.75;;;;;;;19.53;38.64;102800.19;5013922;28;20030;-70
2023/05/18 08:33:05;;;;;;;6.00;1.67;;;;;;;19.45;39.07;102792.69;5003477;28;20886;-70
2023/05/18 08:35:31;;;;;;;4.80;1.53;;;;;;;19.49;38.63;102794.22;5016467;28;20051;-66
2023/05/18 08:37:56;;;;;;;3.20;1.38;;;;;;;19.43;39.11;102791.94;5010424;28;20267;-70
2023/05/18 08:40:31;;;;;;;4.97;1.70;;;;;;;19.45;38.74;102784.75;5011942;28;20545;-69
2023/05/18 08:43:05;;;;;;;5.45;1.85;;;;;;;19.53;38.44;102789.63;5007649;28;20029;-70
2023/05/18 08:45:41;;;;;;;;;;;;;;;19.57;38.63;102784.06;5011462;28;20508;-70
2023/05/18 08:48:09;;;;;;;5.22;1.55;;;;;;;19.56;38.43;102777.06;5005548;28;19919;-70
2023/05/18 08:50:38;;;;;;;5.97;1.73;;;;;;;19.57;38.00;102772.66;5018510;28;20063;-70
2023/05/18 08:53:05;;;;;;;3.97;1.45;;;;;;;19.57;38.04;102775.28;5006247;28;20026;-71
2023/05/18 08:55:35;;;;;;;7.13;1.38;;;;;;;19.55;37.97;102763.94;5012921;28;20030;-69
2023/05/18 08:58:03;;;;;;;7.20;1.85;;;;;;;19.55;38.31;102774.50;5012393;28;20033;-70
2023/05/18 09:00:28;;;;;;;4.28;1.67;;;;;;;19.49;38.39;102773.06;5015225;28;20037;-71
2023/05/18 09:02:54;;;;;;;3.75;1.50;;;;;;;19.48;38.28;102775.81;5003986;28;20401;-70
2023/05/18 09:05:21;;;;;;;5.18;1.70;;;;;;;19.45;38.58;102773.34;5012260;28;20156;-70
2023/05/18 09:07:48;;;;;;;5.88;1.52;;;;;;;19.43;38.57;102770.78;5008333;28;20108;-70
2023/05/18 09:10:14;;;;;;;4.93;1.67;;;;;;;19.42;38.75;102766.41;5013218;28;20038;-74
2023/05/18 09:12:41;;;;;;;6.47;1.70;;;;;;;19.45;38.55;102766.25;5016130;28;20026;-74
2023/05/18 09:15:09;;;;;;;7.88;2.45;;;;;;;19.37;39.28;102771.13;5010828;28;20050;-74
2023/05/18 09:17:35;;;;;;;6.28;1.70;;;;;;;19.43;38.75;102770.78;5013378;28;20038;-68
2023/05/18 09:20:00;;;;;;;4.55;1.90;;;;;;;19.48;38.35;102766.06;5014327;28;20044;-67
2023/05/18 09:22:26;;;;;;;5.30;1.40;;;;;;;19.50;38.81;102771.28;5010418;28;20046;-72
2023/05/18 09:24:52;;;;;;;5.78;1.65;;;;;;;19.49;38.90;102759.84;5010782;28;20494;-69
2023/05/18 09:27:18;;;;;;;6.53;1.55;;;;;;;19.48;38.95;102770.53;5009915;28;20541;-70
2023/05/18 09:29:54;;;;;;;5.78;1.60;;;;;;;19.45;39.05;102765.41;5007407;28;20032;-70
2023/05/18 09:32:20;;;;;;;4.18;1.40;;;;;;;19.45;39.08;102757.47;5010005;28;20072;-69
2023/05/18 09:34:47;;;;;;;3.88;1.40;;;;;;;19.46;38.80;102760.03;5013548;28;20067;-70
2023/05/18 09:37:19;;;;;;;4.63;1.63;;;;;;;19.45;38.83;102758.31;5006046;28;20397;-70
2023/05/18 09:39:56;;;;;;;5.45;1.60;;;;;;;19.48;38.68;102755.50;5012871;28;20137;-70
2023/05/18 09:42:25;;;;;;;6.57;1.80;;;;;;;19.54;38.64;102765.72;5007697;28;20144;-69
2023/05/18 09:44:50;;;;;;;4.30;1.30;;;;;;;19.54;38.75;102762.25;5010116;28;20077;-70
2023/05/18 09:47:16;;;;;;;7.47;1.60;;;;;;;19.56;38.48;102757.72;5009140;28;20069;-72
2023/05/18 09:49:41;;;;;;;4.28;1.40;;;;;;;19.53;38.56;102750.78;5003599;28;20702;-70
2023/05/18 09:52:08;;;;;;;5.88;1.80;;;;;;;19.56;38.24;102744.47;5011805;28;20037;-72
2023/05/18 09:54:35;;;;;;;6.38;1.67;;;;;;;19.57;38.42;102752.34;5009130;28;20496;-72
2023/05/18 09:57:02;;;;;;;5.32;1.50;;;;;;;19.59;38.57;102752.25;5019634;28;20124;-71
2023/05/18 09:59:28;;;;;;;8.93;1.95;;;;;;;19.62;38.36;102749.44;5012382;28;20029;-71
2023/05/18 10:02:04;;;;;;;5.75;1.48;;;;;;;19.61;38.44;102741.56;5007612;28;20042;-70
2023/05/18 10:04:40;;;;;;;5.63;1.50;;;;;;;19.65;38.44;102736.03;5007956;28;20686;-71
2023/05/18 10:07:13;;;;;;;6.38;1.58;;;;;;;19.66;38.54;102743.03;5008964;28;20541;-72
2023/05/18 10:09:43;;;;;;;4.45;1.23;;;;;;;19.70;38.18;102735.75;5009762;28;20492;-69
2023/05/18 10:12:10;;;;;;;9.00;2.30;;;;;;;19.66;38.43;102726.28;5016866;28;20038;-73
2023/05/18 10:14:35;;;;;;;3.97;1.40;;;;;;;19.68;38.46;102733.19;5009804;28;20053;-69
2023/05/18 10:17:05;;;;;;;5.90;2.00;;;;;;;19.65;38.46;102733.38;5013989;28;20041;-69
2023/05/18 10:19:33;;;;;;;4.53;1.30;;;;;;;19.63;38.40;102724.69;5009229;28;20030;-70
2023/05/18 10:22:01;;;;;;;7.00;1.80;;;;;;;19.63;38.23;102729.09;5013664;28;20196;-70
2023/05/18 10:24:34;;;;;;;5.15;1.67;;;;;;;19.68;38.30;102729.72;5009221;28;20033;-70
2023/05/18 10:27:04;;;;;;;4.13;1.40;;;;;;;19.69;38.35;102723.47;5008815;28;20136;-71
2023/05/18 10:29:31;;;;;;;5.03;1.45;;;;;;;19.77;38.29;102731.00;5010825;28;20103;-73
2023/05/18 10:32:02;;;;;;;6.05;1.45;;;;;;;19.82;37.99;102728.91;5012970;28;20273;-73
2023/05/18 10:34:29;;;;;;;5.43;1.85;;;;;;;19.84;38.15;102729.69;4993024;28;20037;-72
2023/05/18 10:36:56;;;;;;;4.30;1.48;;;;;;;19.79;37.90;102721.16;5021854;28;20436;-73
2023/05/18 10:39:22;;;;;;;5.18;1.10;;;;;;;19.83;38.13;102720.03;5000584;28;20034;-76
2023/05/18 10:41:50;;;;;;;5.57;1.75;;;;;;;19.84;37.88;102719.13;5009824;28;20053;-72
2023/05/18 10:44:15;;;;;;;7.63;2.88;;;;;;;19.94;38.03;102725.56;5006267;28;20628;-76
2023/05/18 10:46:42;;;;;;;4.57;1.50;;;;;;;20.00;37.94;102721.69;5011221;28;20112;-72
2023/05/18 10:49:12;;;;;;;6.65;1.60;;;;;;;19.96;37.99;102707.78;5009231;28;20061;-77
2023/05/18 10:51:42;;;;;;;6.85;2.03;;;;;;;20.03;37.91;102718.88;5014887;28;20079;-75
2023/05/18 10:54:12;;;;;;;4.47;1.50;;;;;;;19.94;38.14;102705.22;5021174;28;20124;-70
2023/05/18 10:56:42;;;;;;;7.05;1.80;;;;;;;19.93;38.05;102713.25;5021831;28;20079;-73
2023/05/18 10:59:08;;;;;;;11.18;2.58;;;;;;;19.93;38.23;102713.25;5023801;28;20025;-69
2023/05/18 11:01:34;;;;;;;8.93;2.28;;;;;;;19.92;38.35;102715.06;5011599;28;20042;-71
2023/05/18 11:04:03;;;;;;;7.63;2.05;;;;;;;19.90;38.68;102716.06;5007063;28;20689;-69
2023/05/18 11:06:30;;;;;;;6.35;1.75;;;;;;;19.84;38.71;102719.13;5013035;28;20096;-69
2023/05/18 11:08:55;;;;;;;8.27;2.38;;;;;;;19.74;38.69;102706.38;5010141;28;20037;-69
2023/05/18 11:11:27;;;;;;;6.18;2.05;;;;;;;19.69;38.85;102704.94;5018205;28;20117;-69
2023/05/18 11:13:52;;;;;;;4.93;2.00;;;;;;;19.69;38.83;102708.47;5014693;28;20061;-67
2023/05/18 11:16:19;;;;;;;4.85;2.00;;;;;;;19.72;38.96;102702.13;5018719;28;20105;-73
2023/05/18 11:18:48;;;;;;;6.78;2.30;;;;;;;19.76;39.08;102708.97;5012193;28;20112;-71
2023/05/18 11:21:20;;;;;;;6.25;1.80;;;;;;;19.75;38.95;102704.59;5009762;28;20030;-68
2023/05/18 11:24:14;;;;;;;9.48;2.22;;;;;;;19.74;38.83;102710.81;5017878;28;20076;-69